RNDO2: Randlett 3N(Deep Red Rn)

Data processed at Wed May 22 2019 23:50


All information presented herein is the property of the government of the United States of America and may be revised or deleted at any time without prior notice.
Dissemination of this information without the expressed written consent of the Public Affairs Office, Tulsa District U.S. Army Corps of Engineers is strictly prohibited.
These data are gathered electronically and, as presented, have not undergone any form of quality control. These data are not guaranteed to be valid or correct.
Go to home page.
Go to station list.
Go to home page.

Upstream stations:

Downstream station:
Previous Day
Next Day
Current Day
    
SHEF ID:       RNDO2     Deep Red Creek near Randlett, OK
STATION TYPE:  
Regulating: Stage =    20.00, Flow =     2901

                STAGE  RIV-FLOW  BAT-LOAD
                   ft       cfs      volt
              Ccp-Rev   Ccp-Rev   Ccp-Rev
(US/Central)
05/22 00:00     22.05      4366     12.81
05/22 01:00     22.21      4584     12.81
05/22 02:00     22.34      4768     12.81
05/22 03:00     22.48      4973     12.81
05/22 04:00     22.60      5154     12.73
05/22 05:00     22.70      5310     12.73
05/22 06:00     22.82      5502     12.73
05/22 07:00     22.92      5666     12.73
05/22 08:00     23.03      5868     13.21
05/22 09:00     23.15      6149     13.29
05/22 10:00     23.27      6442     13.29
05/22 11:00     23.38      6720     13.21
05/22 12:00     23.49      7010     13.13
05/22 13:00     23.58      7255     13.21
05/22 14:00     23.67      7507     13.13
05/22 15:00     23.74      7709     13.05
05/22 16:00     23.81      7915     13.13
05/22 17:00     23.87      8096     13.05
05/22 18:00     23.94      8311     13.05
05/22 19:00     24.01      8531     13.05
05/22 20:00     24.07      8720     13.05
05/22 21:00     24.14      8945     12.97
05/22 22:00     24.16      9010     12.89
05/22 23:00     24.18      9075     12.89